sensor_id;sensor_type;location;lat;lon;timestamp;pressure;altitude;pressure_sealevel;temperature;humidity
8573;BME280;4324;42.012;24.872;2023-11-21T00:00:39;98669.78;;;10.09;56.36
8573;BME280;4324;42.012;24.872;2023-11-21T00:03:06;98755.94;;;10.59;56.70
8573;BME280;4324;42.012;24.872;2023-11-21T00:05:33;98745.91;;;10.46;56.61
8573;BME280;4324;42.012;24.872;2023-11-21T00:08:01;98764.75;;;10.51;56.69
8573;BME280;4324;42.012;24.872;2023-11-21T00:10:28;98774.66;;;10.49;56.68
8573;BME280;4324;42.012;24.872;2023-11-21T00:12:55;98768.06;;;10.45;56.89
8573;BME280;4324;42.012;24.872;2023-11-21T00:15:23;98774.19;;;10.46;56.82
8573;BME280;4324;42.012;24.872;2023-11-21T00:17:52;98771.06;;;10.42;56.69
8573;BME280;4324;42.012;24.872;2023-11-21T00:20:19;98775.66;;;10.48;56.81
8573;BME280;4324;42.012;24.872;2023-11-21T00:22:46;98756.19;;;10.33;56.71
8573;BME280;4324;42.012;24.872;2023-11-21T00:25:13;98779.66;;;10.44;56.78
8573;BME280;4324;42.012;24.872;2023-11-21T00:27:43;98751.56;;;10.27;56.87
8573;BME280;4324;42.012;24.872;2023-11-21T00:30:11;98769.41;;;10.41;56.96
8573;BME280;4324;42.012;24.872;2023-11-21T00:32:39;98773.22;;;10.38;56.73
8573;BME280;4324;42.012;24.872;2023-11-21T00:35:06;98780.31;;;10.38;57.00
8573;BME280;4324;42.012;24.872;2023-11-21T00:37:33;98771.78;;;10.28;57.02
8573;BME280;4324;42.012;24.872;2023-11-21T00:40:00;98748.94;;;10.18;57.11
8573;BME280;4324;42.012;24.872;2023-11-21T00:42:30;98771.25;;;10.32;57.16
8573;BME280;4324;42.012;24.872;2023-11-21T00:44:57;98767.59;;;10.33;57.12
8573;BME280;4324;42.012;24.872;2023-11-21T00:47:24;98752.44;;;10.27;57.14
8573;BME280;4324;42.012;24.872;2023-11-21T00:49:53;98752.72;;;10.24;57.10
8573;BME280;4324;42.012;24.872;2023-11-21T00:52:19;98746.63;;;10.24;57.24
8573;BME280;4324;42.012;24.872;2023-11-21T00:54:46;98745.94;;;10.22;57.15
8573;BME280;4324;42.012;24.872;2023-11-21T00:57:13;98747.94;;;10.28;57.07
8573;BME280;4324;42.012;24.872;2023-11-21T00:59:40;98748.25;;;10.25;57.24
8573;BME280;4324;42.012;24.872;2023-11-21T01:02:07;98742.97;;;10.25;57.22
8573;BME280;4324;42.012;24.872;2023-11-21T01:04:36;98752.25;;;10.29;57.22
8573;BME280;4324;42.012;24.872;2023-11-21T01:07:05;98755.56;;;10.31;57.08
8573;BME280;4324;42.012;24.872;2023-11-21T01:09:32;98747.94;;;10.28;57.21
8573;BME280;4324;42.012;24.872;2023-11-21T01:11:59;98752.56;;;10.26;57.01
8573;BME280;4324;42.012;24.872;2023-11-21T01:14:27;98745.94;;;10.22;57.09
8573;BME280;4324;42.012;24.872;2023-11-21T01:16:54;98745.59;;;10.25;57.15
8573;BME280;4324;42.012;24.872;2023-11-21T01:19:21;98740.66;;;10.22;57.12
8573;BME280;4324;42.012;24.872;2023-11-21T01:21:49;98748.25;;;10.25;57.22
8573;BME280;4324;42.012;24.872;2023-11-21T01:24:19;98739.97;;;10.19;57.05
8573;BME280;4324;42.012;24.872;2023-11-21T01:26:45;98756.19;;;10.25;57.11
8573;BME280;4324;42.012;24.872;2023-11-21T01:29:13;98741.66;;;10.21;57.33
8573;BME280;4324;42.012;24.872;2023-11-21T01:31:40;98730.41;;;10.18;57.03
8573;BME280;4324;42.012;24.872;2023-11-21T01:34:07;98736.03;;;10.24;57.18
8573;BME280;4324;42.012;24.872;2023-11-21T01:36:34;98717.88;;;10.12;57.11
8573;BME280;4324;42.012;24.872;2023-11-21T01:39:02;98719.53;;;10.05;57.19
8573;BME280;4324;42.012;24.872;2023-11-21T01:41:35;98741.00;;;10.18;57.17
8573;BME280;4324;42.012;24.872;2023-11-21T01:44:02;98733.75;;;10.12;57.20
8573;BME280;4324;42.012;24.872;2023-11-21T01:46:33;98738.34;;;10.18;57.28
8573;BME280;4324;42.012;24.872;2023-11-21T01:49:00;98733.06;;;10.18;57.08
8573;BME280;4324;42.012;24.872;2023-11-21T01:51:27;98734.06;;;10.17;57.17
8573;BME280;4324;42.012;24.872;2023-11-21T01:53:54;98732.91;;;10.20;57.15
8573;BME280;4324;42.012;24.872;2023-11-21T01:56:21;98715.19;;;10.21;57.05
8573;BME280;4324;42.012;24.872;2023-11-21T01:58:50;98722.13;;;10.22;56.95
8573;BME280;4324;42.012;24.872;2023-11-21T02:01:16;98714.56;;;10.10;57.06
8573;BME280;4324;42.012;24.872;2023-11-21T02:03:44;98722.31;;;10.20;57.02
8573;BME280;4324;42.012;24.872;2023-11-21T02:06:11;98715.22;;;10.12;57.12
8573;BME280;4324;42.012;24.872;2023-11-21T02:08:38;98714.22;;;10.13;57.01
8573;BME280;4324;42.012;24.872;2023-11-21T02:11:08;98726.28;;;10.16;56.91
8573;BME280;4324;42.012;24.872;2023-11-21T02:13:38;98716.53;;;10.08;57.06
8573;BME280;4324;42.012;24.872;2023-11-21T02:16:10;98728.47;;;10.12;57.02
8573;BME280;4324;42.012;24.872;2023-11-21T02:18:38;98717.03;;;10.12;57.30
8573;BME280;4324;42.012;24.872;2023-11-21T02:21:08;98716.88;;;10.13;56.99
8573;BME280;4324;42.012;24.872;2023-11-21T02:23:37;98709.94;;;10.04;57.07
8573;BME280;4324;42.012;24.872;2023-11-21T02:26:07;98720.03;;;10.09;57.06
8573;BME280;4324;42.012;24.872;2023-11-21T02:28:35;98709.13;;;10.04;57.14
8573;BME280;4324;42.012;24.872;2023-11-21T02:31:04;98719.06;;;10.02;57.06
8573;BME280;4324;42.012;24.872;2023-11-21T02:33:33;98715.22;;;10.04;57.20
8573;BME280;4324;42.012;24.872;2023-11-21T02:36:00;98706.31;;;9.97;57.26
8573;BME280;4324;42.012;24.872;2023-11-21T02:38:27;98709.81;;;9.98;57.28
8573;BME280;4324;42.012;24.872;2023-11-21T02:40:57;98710.94;;;10.03;57.12
8573;BME280;4324;42.012;24.872;2023-11-21T02:43:25;98690.16;;;9.92;57.28
8573;BME280;4324;42.012;24.872;2023-11-21T02:45:52;98704.50;;;10.06;57.19
8573;BME280;4324;42.012;24.872;2023-11-21T02:48:19;98707.44;;;10.11;57.18
8573;BME280;4324;42.012;24.872;2023-11-21T02:50:46;98699.34;;;10.12;57.10
8573;BME280;4324;42.012;24.872;2023-11-21T02:53:13;98701.16;;;10.12;57.12
8573;BME280;4324;42.012;24.872;2023-11-21T02:55:40;98671.78;;;9.99;56.91
8573;BME280;4324;42.012;24.872;2023-11-21T02:58:08;98701.03;;;10.05;57.00
8573;BME280;4324;42.012;24.872;2023-11-21T03:00:35;98713.56;;;10.11;57.24
8573;BME280;4324;42.012;24.872;2023-11-21T03:03:02;98712.59;;;10.04;57.10
8573;BME280;4324;42.012;24.872;2023-11-21T03:05:29;98703.19;;;10.02;57.00
8573;BME280;4324;42.012;24.872;2023-11-21T03:07:56;98724.66;;;10.07;56.99
8573;BME280;4324;42.012;24.872;2023-11-21T03:10:23;98708.00;;;9.98;56.94
8573;BME280;4324;42.012;24.872;2023-11-21T03:12:50;98738.56;;;10.09;56.95
8573;BME280;4324;42.012;24.872;2023-11-21T03:15:19;98742.16;;;10.08;57.00
8573;BME280;4324;42.012;24.872;2023-11-21T03:17:46;98732.78;;;10.05;57.04
8573;BME280;4324;42.012;24.872;2023-11-21T03:20:14;98732.44;;;10.00;57.11
8573;BME280;4324;42.012;24.872;2023-11-21T03:22:42;98718.22;;;9.93;57.20
8573;BME280;4324;42.012;24.872;2023-11-21T03:25:09;98729.31;;;9.97;57.09
8573;BME280;4324;42.012;24.872;2023-11-21T03:27:37;98699.25;;;9.81;57.09
8573;BME280;4324;42.012;24.872;2023-11-21T03:30:08;98737.09;;;9.98;57.26
8573;BME280;4324;42.012;24.872;2023-11-21T03:32:37;98723.84;;;9.90;57.31
8573;BME280;4324;42.012;24.872;2023-11-21T03:35:04;98720.56;;;9.88;57.50
8573;BME280;4324;42.012;24.872;2023-11-21T03:37:31;98723.53;;;9.85;57.40
8573;BME280;4324;42.012;24.872;2023-11-21T03:39:58;98723.72;;;9.83;57.52
8573;BME280;4324;42.012;24.872;2023-11-21T03:42:25;98728.53;;;9.80;57.42
8573;BME280;4324;42.012;24.872;2023-11-21T03:44:52;98724.72;;;9.74;57.61
8573;BME280;4324;42.012;24.872;2023-11-21T03:47:19;98712.34;;;9.58;57.73
8573;BME280;4324;42.012;24.872;2023-11-21T03:49:47;98731.00;;;9.65;57.72
8573;BME280;4324;42.012;24.872;2023-11-21T03:52:14;98727.88;;;9.61;57.96
8573;BME280;4324;42.012;24.872;2023-11-21T03:54:41;98728.03;;;9.60;57.90
8573;BME280;4324;42.012;24.872;2023-11-21T03:57:09;98723.91;;;9.57;57.99
8573;BME280;4324;42.012;24.872;2023-11-21T03:59:35;98733.31;;;9.60;57.98
8573;BME280;4324;42.012;24.872;2023-11-21T04:02:03;98737.78;;;9.59;57.88
8573;BME280;4324;42.012;24.872;2023-11-21T04:04:30;98745.19;;;9.64;57.87
8573;BME280;4324;42.012;24.872;2023-11-21T04:06:58;98744.38;;;9.63;57.90
8573;BME280;4324;42.012;24.872;2023-11-21T04:09:25;98743.06;;;9.59;57.86
8573;BME280;4324;42.012;24.872;2023-11-21T04:11:52;98752.19;;;9.57;58.06
8573;BME280;4324;42.012;24.872;2023-11-21T04:14:21;98743.75;;;9.53;58.21
8573;BME280;4324;42.012;24.872;2023-11-21T04:16:49;98733.50;;;9.42;58.32
8573;BME280;4324;42.012;24.872;2023-11-21T04:19:15;98747.69;;;9.49;58.34
8573;BME280;4324;42.012;24.872;2023-11-21T04:21:43;98751.31;;;9.48;58.41
8573;BME280;4324;42.012;24.872;2023-11-21T04:24:11;98750.34;;;9.41;58.57
8573;BME280;4324;42.012;24.872;2023-11-21T04:26:38;98762.91;;;9.55;58.39
8573;BME280;4324;42.012;24.872;2023-11-21T04:29:05;98741.09;;;9.53;58.41
8573;BME280;4324;42.012;24.872;2023-11-21T04:31:32;98752.00;;;9.58;58.35
8573;BME280;4324;42.012;24.872;2023-11-21T04:34:00;98738.09;;;9.56;58.23
8573;BME280;4324;42.012;24.872;2023-11-21T04:36:26;98744.06;;;9.58;58.44
8573;BME280;4324;42.012;24.872;2023-11-21T04:38:56;98744.88;;;9.67;58.65
8573;BME280;4324;42.012;24.872;2023-11-21T04:41:24;98752.31;;;9.63;58.62
8573;BME280;4324;42.012;24.872;2023-11-21T04:43:51;98763.88;;;9.62;58.65
8573;BME280;4324;42.012;24.872;2023-11-21T04:46:18;98757.59;;;9.55;58.54
8573;BME280;4324;42.012;24.872;2023-11-21T04:48:45;98752.00;;;9.50;58.59
8573;BME280;4324;42.012;24.872;2023-11-21T04:51:12;98765.88;;;9.52;58.61
8573;BME280;4324;42.012;24.872;2023-11-21T04:53:39;98761.75;;;9.50;58.61
8573;BME280;4324;42.012;24.872;2023-11-21T04:56:08;98773.78;;;9.52;58.67
8573;BME280;4324;42.012;24.872;2023-11-21T04:58:36;98780.75;;;9.53;58.71
8573;BME280;4324;42.012;24.872;2023-11-21T05:01:04;98776.59;;;9.51;59.02
8573;BME280;4324;42.012;24.872;2023-11-21T05:03:31;98777.75;;;9.48;59.07
8573;BME280;4324;42.012;24.872;2023-11-21T05:05:59;98782.72;;;9.51;59.12
8573;BME280;4324;42.012;24.872;2023-11-21T05:08:26;98765.88;;;9.36;59.23
8573;BME280;4324;42.012;24.872;2023-11-21T05:10:53;98771.47;;;9.41;59.37
8573;BME280;4324;42.012;24.872;2023-11-21T05:13:20;98775.78;;;9.42;59.48
8573;BME280;4324;42.012;24.872;2023-11-21T05:15:54;98779.25;;;9.42;59.52
8573;BME280;4324;42.012;24.872;2023-11-21T05:18:21;98783.88;;;9.40;59.58
8573;BME280;4324;42.012;24.872;2023-11-21T05:20:49;98768.19;;;9.39;59.60
8573;BME280;4324;42.012;24.872;2023-11-21T05:23:18;98761.22;;;9.30;59.45
8573;BME280;4324;42.012;24.872;2023-11-21T05:25:45;98778.44;;;9.42;59.62
8573;BME280;4324;42.012;24.872;2023-11-21T05:28:12;98763.53;;;9.33;59.56
8573;BME280;4324;42.012;24.872;2023-11-21T05:30:39;98769.31;;;9.36;59.64
8573;BME280;4324;42.012;24.872;2023-11-21T05:33:07;98778.25;;;9.35;59.77
8573;BME280;4324;42.012;24.872;2023-11-21T05:35:35;98769.66;;;9.33;59.59
8573;BME280;4324;42.012;24.872;2023-11-21T05:38:02;98771.78;;;9.30;59.68
8573;BME280;4324;42.012;24.872;2023-11-21T05:40:30;98769.47;;;9.27;59.76
8573;BME280;4324;42.012;24.872;2023-11-21T05:42:58;98773.78;;;9.36;59.50
8573;BME280;4324;42.012;24.872;2023-11-21T05:45:25;98762.91;;;9.31;59.83
8573;BME280;4324;42.012;24.872;2023-11-21T05:47:54;98755.63;;;9.25;59.79
8573;BME280;4324;42.012;24.872;2023-11-21T05:50:23;98766.88;;;9.35;59.79
8573;BME280;4324;42.012;24.872;2023-11-21T05:52:50;98777.75;;;9.40;59.67
8573;BME280;4324;42.012;24.872;2023-11-21T05:55:17;98770.16;;;9.37;59.62
8573;BME280;4324;42.012;24.872;2023-11-21T05:57:46;98782.03;;;9.41;59.78
8573;BME280;4324;42.012;24.872;2023-11-21T06:00:14;98776.94;;;9.39;59.84
8573;BME280;4324;42.012;24.872;2023-11-21T06:02:48;98773.97;;;9.42;59.94
8573;BME280;4324;42.012;24.872;2023-11-21T06:05:17;98765.53;;;9.39;59.82
8573;BME280;4324;42.012;24.872;2023-11-21T06:07:46;98771.16;;;9.44;59.75
8573;BME280;4324;42.012;24.872;2023-11-21T06:10:13;98777.94;;;9.55;59.99
8573;BME280;4324;42.012;24.872;2023-11-21T06:12:40;98778.94;;;9.62;60.06
8573;BME280;4324;42.012;24.872;2023-11-21T06:15:09;98777.78;;;9.64;59.85
8573;BME280;4324;42.012;24.872;2023-11-21T06:17:39;98777.91;;;9.71;59.79
8573;BME280;4324;42.012;24.872;2023-11-21T06:20:08;98779.72;;;9.79;59.71
8573;BME280;4324;42.012;24.872;2023-11-21T06:22:37;98752.16;;;9.73;59.77
8573;BME280;4324;42.012;24.872;2023-11-21T06:25:06;98743.91;;;9.76;59.67
8573;BME280;4324;42.012;24.872;2023-11-21T06:27:36;98765.50;;;9.96;59.56
8573;BME280;4324;42.012;24.872;2023-11-21T06:30:05;98762.19;;;10.02;60.04
8573;BME280;4324;42.012;24.872;2023-11-21T06:32:32;98759.88;;;10.07;59.83
8573;BME280;4324;42.012;24.872;2023-11-21T06:35:00;98763.34;;;10.16;59.53
8573;BME280;4324;42.012;24.872;2023-11-21T06:37:27;98769.13;;;10.28;59.70
8573;BME280;4324;42.012;24.872;2023-11-21T06:39:54;98767.44;;;10.35;59.45
8573;BME280;4324;42.012;24.872;2023-11-21T06:42:23;98776.00;;;10.45;59.46
8573;BME280;4324;42.012;24.872;2023-11-21T06:44:50;98786.09;;;10.50;59.19
8573;BME280;4324;42.012;24.872;2023-11-21T06:47:19;98783.25;;;10.51;59.17
8573;BME280;4324;42.012;24.872;2023-11-21T06:49:46;98770.03;;;10.51;59.29
8573;BME280;4324;42.012;24.872;2023-11-21T06:52:14;98753.81;;;10.54;59.25
8573;BME280;4324;42.012;24.872;2023-11-21T06:54:41;98764.66;;;10.68;59.00
8573;BME280;4324;42.012;24.872;2023-11-21T06:57:08;98772.22;;;10.79;58.56
8573;BME280;4324;42.012;24.872;2023-11-21T06:59:37;98771.19;;;10.88;58.80
8573;BME280;4324;42.012;24.872;2023-11-21T07:02:04;98763.88;;;10.90;58.81
8573;BME280;4324;42.012;24.872;2023-11-21T07:04:32;98754.13;;;10.90;59.00
8573;BME280;4324;42.012;24.872;2023-11-21T07:06:59;98764.69;;;10.99;58.97
8573;BME280;4324;42.012;24.872;2023-11-21T07:09:26;98739.06;;;10.91;59.00
8573;BME280;4324;42.012;24.872;2023-11-21T07:11:53;98756.50;;;11.08;59.18
8573;BME280;4324;42.012;24.872;2023-11-21T07:14:20;98764.34;;;11.25;58.60
8573;BME280;4324;42.012;24.872;2023-11-21T07:16:49;98756.53;;;11.31;58.59
8573;BME280;4324;42.012;24.872;2023-11-21T07:19:18;98765.44;;;11.38;58.35
8573;BME280;4324;42.012;24.872;2023-11-21T07:21:45;98751.50;;;11.36;58.14
8573;BME280;4324;42.012;24.872;2023-11-21T07:24:16;98743.56;;;11.36;58.06
8573;BME280;4324;42.012;24.872;2023-11-21T07:26:45;98687.59;;;11.08;58.01
8573;BME280;4324;42.012;24.872;2023-11-21T07:29:13;98771.69;;;11.60;57.98
8573;BME280;4324;42.012;24.872;2023-11-21T07:31:40;98778.31;;;11.65;58.17
8573;BME280;4324;42.012;24.872;2023-11-21T07:34:09;98783.50;;;11.58;58.33
8573;BME280;4324;42.012;24.872;2023-11-21T07:36:37;98776.25;;;11.29;58.29
8573;BME280;4324;42.012;24.872;2023-11-21T07:39:04;98764.75;;;10.82;59.26
8573;BME280;4324;42.012;24.872;2023-11-21T07:41:32;98768.06;;;10.53;60.00
8573;BME280;4324;42.012;24.872;2023-11-21T07:43:59;98788.94;;;10.40;60.55
8573;BME280;4324;42.012;24.872;2023-11-21T07:46:28;98757.72;;;10.11;61.35
8573;BME280;4324;42.012;24.872;2023-11-21T07:48:55;98780.69;;;10.18;61.68
8573;BME280;4324;42.012;24.872;2023-11-21T07:51:24;98786.47;;;10.22;61.84
8573;BME280;4324;42.012;24.872;2023-11-21T07:53:51;98778.38;;;10.07;61.96
8573;BME280;4324;42.012;24.872;2023-11-21T07:56:18;98788.31;;;10.13;62.03
8573;BME280;4324;42.012;24.872;2023-11-21T07:58:45;98795.25;;;10.14;62.03
8573;BME280;4324;42.012;24.872;2023-11-21T08:01:12;98790.59;;;10.08;62.35
8573;BME280;4324;42.012;24.872;2023-11-21T08:03:39;98793.25;;;10.16;62.12
8573;BME280;4324;42.012;24.872;2023-11-21T08:06:07;98802.50;;;10.21;62.49
8573;BME280;4324;42.012;24.872;2023-11-21T08:08:36;98788.47;;;10.20;62.34
8573;BME280;4324;42.012;24.872;2023-11-21T08:11:03;98796.91;;;10.32;62.43
8573;BME280;4324;42.012;24.872;2023-11-21T08:13:30;98785.31;;;10.33;62.49
8573;BME280;4324;42.012;24.872;2023-11-21T08:15:58;98794.72;;;10.44;62.52
8573;BME280;4324;42.012;24.872;2023-11-21T08:18:28;98788.75;;;10.50;62.39
8573;BME280;4324;42.012;24.872;2023-11-21T08:20:55;98792.19;;;10.58;62.55
8573;BME280;4324;42.012;24.872;2023-11-21T08:23:23;98794.66;;;10.60;62.28
8573;BME280;4324;42.012;24.872;2023-11-21T08:25:53;98793.97;;;10.66;62.33
8573;BME280;4324;42.012;24.872;2023-11-21T08:28:20;98767.34;;;10.59;62.38
8573;BME280;4324;42.012;24.872;2023-11-21T08:30:47;98792.44;;;10.80;62.48
8573;BME280;4324;42.012;24.872;2023-11-21T08:33:14;98789.44;;;10.83;62.59
8573;BME280;4324;42.012;24.872;2023-11-21T08:35:41;98789.91;;;10.86;62.49
8573;BME280;4324;42.012;24.872;2023-11-21T08:38:09;98786.75;;;10.91;62.49
8573;BME280;4324;42.012;24.872;2023-11-21T08:40:36;98781.09;;;10.94;62.35
8573;BME280;4324;42.012;24.872;2023-11-21T08:43:05;98775.34;;;10.90;62.28
8573;BME280;4324;42.012;24.872;2023-11-21T08:45:33;98758.25;;;10.93;62.30
8573;BME280;4324;42.012;24.872;2023-11-21T08:48:00;98711.69;;;10.68;62.41
8573;BME280;4324;42.012;24.872;2023-11-21T08:50:27;98770.06;;;11.13;62.16
8573;BME280;4324;42.012;24.872;2023-11-21T08:52:54;98772.38;;;11.17;62.06
8573;BME280;4324;42.012;24.872;2023-11-21T08:55:21;98768.72;;;11.18;61.95
8573;BME280;4324;42.012;24.872;2023-11-21T08:57:48;98763.22;;;11.19;61.90
8573;BME280;4324;42.012;24.872;2023-11-21T09:00:18;98747.84;;;11.14;62.04
8573;BME280;4324;42.012;24.872;2023-11-21T09:02:45;98735.91;;;11.19;62.02
8573;BME280;4324;42.012;24.872;2023-11-21T09:05:13;98747.03;;;11.37;61.74
8573;BME280;4324;42.012;24.872;2023-11-21T09:07:42;98720.38;;;11.38;61.80
8573;BME280;4324;42.012;24.872;2023-11-21T09:10:12;98729.25;;;11.60;61.88
8573;BME280;4324;42.012;24.872;2023-11-21T09:12:40;98729.50;;;11.74;61.81
8573;BME280;4324;42.012;24.872;2023-11-21T09:15:09;98709.19;;;11.81;61.91
8573;BME280;4324;42.012;24.872;2023-11-21T09:17:38;98710.06;;;11.96;61.73
8573;BME280;4324;42.012;24.872;2023-11-21T09:20:07;98709.53;;;12.16;61.63
8573;BME280;4324;42.012;24.872;2023-11-21T09:22:35;98670.72;;;12.15;61.25
8573;BME280;4324;42.012;24.872;2023-11-21T09:25:03;98690.09;;;12.45;60.95
8573;BME280;4324;42.012;24.872;2023-11-21T09:27:31;98680.47;;;12.58;61.01
8573;BME280;4324;42.012;24.872;2023-11-21T09:29:58;98697.06;;;12.82;60.66
8573;BME280;4324;42.012;24.872;2023-11-21T09:32:25;98687.69;;;12.86;60.69
8573;BME280;4324;42.012;24.872;2023-11-21T09:34:53;98695.19;;;12.97;60.56
8573;BME280;4324;42.012;24.872;2023-11-21T09:37:24;98698.13;;;13.02;60.24
8573;BME280;4324;42.012;24.872;2023-11-21T09:39:52;98678.84;;;13.00;60.21
8573;BME280;4324;42.012;24.872;2023-11-21T09:42:23;98676.72;;;13.11;60.33
8573;BME280;4324;42.012;24.872;2023-11-21T09:45:00;98684.19;;;13.22;60.11
8573;BME280;4324;42.012;24.872;2023-11-21T09:47:30;98660.00;;;13.17;60.07
8573;BME280;4324;42.012;24.872;2023-11-21T09:50:01;98683.19;;;13.44;60.17
8573;BME280;4324;42.012;24.872;2023-11-21T09:52:28;98662.09;;;13.43;59.86
8573;BME280;4324;42.012;24.872;2023-11-21T09:54:56;98653.97;;;13.51;59.78
8573;BME280;4324;42.012;24.872;2023-11-21T09:57:24;98661.00;;;13.59;59.53
8573;BME280;4324;42.012;24.872;2023-11-21T09:59:53;98664.53;;;13.66;59.02
8573;BME280;4324;42.012;24.872;2023-11-21T10:02:25;98660.25;;;13.71;59.13
8573;BME280;4324;42.012;24.872;2023-11-21T10:04:54;98648.06;;;13.84;58.94
8573;BME280;4324;42.012;24.872;2023-11-21T10:07:23;98627.50;;;13.71;58.72
8573;BME280;4324;42.012;24.872;2023-11-21T10:09:51;98662.66;;;13.94;58.59
8573;BME280;4324;42.012;24.872;2023-11-21T10:12:19;98642.63;;;13.98;58.64
8573;BME280;4324;42.012;24.872;2023-11-21T10:14:48;98631.28;;;13.90;58.42
8573;BME280;4324;42.012;24.872;2023-11-21T10:17:18;98631.16;;;13.98;58.87
8573;BME280;4324;42.012;24.872;2023-11-21T10:19:47;98626.03;;;13.96;58.40
8573;BME280;4324;42.012;24.872;2023-11-21T10:22:14;98622.09;;;13.92;58.19
8573;BME280;4324;42.012;24.872;2023-11-21T10:24:44;98613.09;;;13.93;58.46
8573;BME280;4324;42.012;24.872;2023-11-21T10:27:11;98591.13;;;13.78;58.14
8573;BME280;4324;42.012;24.872;2023-11-21T10:29:39;98620.72;;;14.03;58.08
8573;BME280;4324;42.012;24.872;2023-11-21T10:32:07;98609.72;;;14.13;57.87
8573;BME280;4324;42.012;24.872;2023-11-21T10:34:35;98609.31;;;14.16;58.08
8573;BME280;4324;42.012;24.872;2023-11-21T10:37:11;98600.75;;;14.20;57.59
8573;BME280;4324;42.012;24.872;2023-11-21T10:39:39;98610.53;;;14.20;57.39
8573;BME280;4324;42.012;24.872;2023-11-21T10:42:09;98603.59;;;14.19;57.30
8573;BME280;4324;42.012;24.872;2023-11-21T10:44:36;98604.84;;;14.23;57.61
8573;BME280;4324;42.012;24.872;2023-11-21T10:47:03;98601.56;;;14.21;57.20
8573;BME280;4324;42.012;24.872;2023-11-21T10:49:30;98581.88;;;14.15;57.59
8573;BME280;4324;42.012;24.872;2023-11-21T10:51:58;98590.91;;;14.21;57.18
8573;BME280;4324;42.012;24.872;2023-11-21T10:54:25;98573.28;;;14.13;57.44
8573;BME280;4324;42.012;24.872;2023-11-21T10:56:56;98583.53;;;14.23;57.21
8573;BME280;4324;42.012;24.872;2023-11-21T10:59:28;98591.75;;;14.28;57.17
8573;BME280;4324;42.012;24.872;2023-11-21T11:01:57;98585.19;;;14.31;57.04
8573;BME280;4324;42.012;24.872;2023-11-21T11:04:27;98573.31;;;14.33;56.59
8573;BME280;4324;42.012;24.872;2023-11-21T11:06:57;98586.47;;;14.41;56.49
8573;BME280;4324;42.012;24.872;2023-11-21T11:09:24;98580.50;;;14.33;56.37
8573;BME280;4324;42.012;24.872;2023-11-21T11:11:52;98566.72;;;14.22;56.35
8573;BME280;4324;42.012;24.872;2023-11-21T11:14:19;98572.09;;;14.29;56.20
8573;BME280;4324;42.012;24.872;2023-11-21T11:16:54;98568.41;;;14.30;56.24
8573;BME280;4324;42.012;24.872;2023-11-21T11:19:21;98552.41;;;14.30;55.93
8573;BME280;4324;42.012;24.872;2023-11-21T11:21:53;98552.03;;;14.33;55.72
8573;BME280;4324;42.012;24.872;2023-11-21T11:24:36;98547.94;;;14.37;55.53
8573;BME280;4324;42.012;24.872;2023-11-21T11:27:14;98530.28;;;14.29;55.79
8573;BME280;4324;42.012;24.872;2023-11-21T11:29:52;98548.78;;;14.44;55.72
8573;BME280;4324;42.012;24.872;2023-11-21T11:32:37;98540.38;;;14.47;55.47
8573;BME280;4324;42.012;24.872;2023-11-21T11:35:10;98527.06;;;14.47;55.73
8573;BME280;4324;42.012;24.872;2023-11-21T11:37:42;98508.41;;;14.47;55.99
8573;BME280;4324;42.012;24.872;2023-11-21T11:40:11;98516.44;;;14.61;56.10
8573;BME280;4324;42.012;24.872;2023-11-21T11:42:38;98502.50;;;14.59;56.36
8573;BME280;4324;42.012;24.872;2023-11-21T11:45:17;98507.44;;;14.62;56.60
8573;BME280;4324;42.012;24.872;2023-11-21T11:47:47;98506.59;;;14.68;56.90
8573;BME280;4324;42.012;24.872;2023-11-21T11:50:15;98511.13;;;14.67;56.97
8573;BME280;4324;42.012;24.872;2023-11-21T11:52:47;98496.56;;;14.70;57.00
8573;BME280;4324;42.012;24.872;2023-11-21T11:55:20;98478.13;;;14.68;57.15
8573;BME280;4324;42.012;24.872;2023-11-21T11:57:48;98461.09;;;14.63;57.43
8573;BME280;4324;42.012;24.872;2023-11-21T12:00:17;98452.72;;;14.66;57.76
8573;BME280;4324;42.012;24.872;2023-11-21T12:02:48;98439.16;;;14.61;57.96
8573;BME280;4324;42.012;24.872;2023-11-21T12:05:18;98420.13;;;14.50;57.92
8573;BME280;4324;42.012;24.872;2023-11-21T12:07:47;98410.88;;;14.46;58.22
8573;BME280;4324;42.012;24.872;2023-11-21T12:10:15;98416.44;;;14.51;57.89
8573;BME280;4324;42.012;24.872;2023-11-21T12:12:45;98395.53;;;14.35;58.08
8573;BME280;4324;42.012;24.872;2023-11-21T12:15:12;98414.34;;;14.40;58.33
8573;BME280;4324;42.012;24.872;2023-11-21T12:17:41;98435.47;;;14.35;58.48
8573;BME280;4324;42.012;24.872;2023-11-21T12:20:11;98438.13;;;14.35;58.58
8573;BME280;4324;42.012;24.872;2023-11-21T12:22:44;98410.03;;;14.26;58.84
8573;BME280;4324;42.012;24.872;2023-11-21T12:25:13;98409.84;;;14.21;58.99
8573;BME280;4324;42.012;24.872;2023-11-21T12:27:43;98419.66;;;14.14;58.98
8573;BME280;4324;42.012;24.872;2023-11-21T12:30:12;98440.56;;;14.17;59.01
8573;BME280;4324;42.012;24.872;2023-11-21T12:32:42;98442.00;;;14.19;59.08
8573;BME280;4324;42.012;24.872;2023-11-21T12:35:11;98438.09;;;14.22;58.92
8573;BME280;4324;42.012;24.872;2023-11-21T12:37:38;98443.84;;;14.25;59.12
8573;BME280;4324;42.012;24.872;2023-11-21T12:40:07;98444.25;;;14.29;58.87
8573;BME280;4324;42.012;24.872;2023-11-21T12:42:38;98453.06;;;14.29;58.69
8573;BME280;4324;42.012;24.872;2023-11-21T12:45:18;98443.03;;;14.25;58.66
8573;BME280;4324;42.012;24.872;2023-11-21T12:47:46;98435.84;;;14.19;58.18
8573;BME280;4324;42.012;24.872;2023-11-21T12:50:18;98442.63;;;14.28;58.48
8573;BME280;4324;42.012;24.872;2023-11-21T12:52:50;98368.44;;;13.92;58.54
8573;BME280;4324;42.012;24.872;2023-11-21T12:55:20;98435.66;;;14.40;58.71
8573;BME280;4324;42.012;24.872;2023-11-21T12:57:48;98436.69;;;14.46;58.62
8573;BME280;4324;42.012;24.872;2023-11-21T13:00:18;98420.72;;;14.39;58.52
8573;BME280;4324;42.012;24.872;2023-11-21T13:02:53;98436.06;;;14.44;58.17
8573;BME280;4324;42.012;24.872;2023-11-21T13:05:31;98417.22;;;14.32;58.12
8573;BME280;4324;42.012;24.872;2023-11-21T13:08:02;98408.00;;;14.28;58.33
8573;BME280;4324;42.012;24.872;2023-11-21T13:10:30;98412.91;;;14.31;58.43
8573;BME280;4324;42.012;24.872;2023-11-21T13:12:58;98404.31;;;14.29;58.62
8573;BME280;4324;42.012;24.872;2023-11-21T13:15:26;98399.59;;;14.31;58.58
8573;BME280;4324;42.012;24.872;2023-11-21T13:17:54;98382.81;;;14.24;58.61